Time;durP1;ratioP1;P1;durP2;ratioP2;P2;SDS_P1;SDS_P2;PMS_P1;PMS_P2;Temp;Humidity;BMP_temperature;BMP_pressure;BME280_temperature;BME280_humidity;BME280_pressure;Samples;Min_cycle;Max_cycle;Signal;HPM_P1;HPM_P2
2023/12/27 00:01:56;;;;;;;8.45;4.10;;;;;;;;;;5073738;28;20939;-70
2023/12/27 00:04:23;;;;;;;8.25;4.50;;;;;;;;;;5072381;28;20446;-71
2023/12/27 00:06:51;;;;;;;8.40;4.00;;;;;;;;;;5073069;28;20454;-70
2023/12/27 00:09:18;;;;;;;8.65;4.10;;;;;;;;;;5080088;28;20520;-71
2023/12/27 00:11:46;;;;;;;10.65;4.55;;;;;;;;;;5078544;28;20496;-71
2023/12/27 00:14:13;;;;;;;8.90;3.95;;;;;;;;;;5079874;28;20546;-71
2023/12/27 00:16:41;;;;;;;11.45;4.65;;;;;;;;;;5075931;28;20410;-71
2023/12/27 00:19:08;;;;;;;7.73;3.70;;;;;;;;;;5076286;28;20517;-71
2023/12/27 00:21:35;;;;;;;8.48;4.10;;;;;;;;;;5077395;28;20445;-71
2023/12/27 00:24:03;;;;;;;8.25;4.22;;;;;;;;;;5081043;28;20541;-71
2023/12/27 00:26:30;;;;;;;9.48;4.97;;;;;;;;;;5079168;28;20425;-71
2023/12/27 00:28:58;;;;;;;11.63;4.70;;;;;;;;;;5083954;28;20406;-71
2023/12/27 00:31:25;;;;;;;8.80;4.72;;;;;;;;;;5082355;28;20861;-71
2023/12/27 00:33:52;;;;;;;9.20;4.70;;;;;;;;;;5083878;28;20653;-70
2023/12/27 00:36:20;;;;;;;8.68;4.50;;;;;;;;;;5079640;28;20436;-71
2023/12/27 00:38:47;;;;;;;8.60;5.20;;;;;;;;;;5085121;28;20410;-70
2023/12/27 00:41:14;;;;;;;9.25;5.28;;;;;;;;;;5078083;28;20464;-71
2023/12/27 00:43:41;;;;;;;12.00;4.93;;;;;;;;;;5081940;28;20429;-71
2023/12/27 00:46:10;;;;;;;12.20;5.07;;;;;;;;;;5079570;28;20743;-70
2023/12/27 00:48:37;;;;;;;10.10;5.00;;;;;;;;;;5079895;28;20453;-71
2023/12/27 00:51:05;;;;;;;10.80;5.50;;;;;;;;;;5082827;28;20440;-71
2023/12/27 00:53:32;;;;;;;10.27;5.10;;;;;;;;;;5083497;28;20436;-71
2023/12/27 00:55:59;;;;;;;12.05;4.75;;;;;;;;;;5076104;28;20418;-71
2023/12/27 00:58:26;;;;;;;11.90;5.82;;;;;;;;;;5076672;28;20610;-70
2023/12/27 01:00:53;;;;;;;12.48;5.22;;;;;;;;;;5084513;28;20796;-71
2023/12/27 01:03:22;;;;;;;14.75;5.55;;;;;;;;;;5085635;28;20904;-71
2023/12/27 01:05:49;;;;;;;9.57;4.50;;;;;;;;;;5074810;28;20412;-71
2023/12/27 01:08:16;;;;;;;10.45;4.97;;;;;;;;;;5083495;28;20426;-71
2023/12/27 01:10:43;;;;;;;9.60;4.93;;;;;;;;;;5077508;28;20410;-71
2023/12/27 01:13:10;;;;;;;11.65;4.72;;;;;;;;;;5082863;28;20405;-71
2023/12/27 01:15:37;;;;;;;8.75;5.05;;;;;;;;;;5079857;28;20680;-71
2023/12/27 01:18:04;;;;;;;6.82;4.63;;;;;;;;;;5077855;28;20421;-71
2023/12/27 01:20:33;;;;;;;10.52;5.07;;;;;;;;;;5078352;28;20452;-70
2023/12/27 01:23:00;;;;;;;11.77;5.32;;;;;;;;;;5080797;28;20437;-71
2023/12/27 01:25:27;;;;;;;11.23;5.10;;;;;;;;;;5080876;28;20432;-71
2023/12/27 01:27:54;;;;;;;9.43;5.10;;;;;;;;;;5082128;28;20429;-71
2023/12/27 01:30:21;;;;;;;11.00;4.90;;;;;;;;;;5080476;28;20421;-71
2023/12/27 01:32:48;;;;;;;10.77;5.20;;;;;;;;;;5079732;28;20478;-71
2023/12/27 01:35:15;;;;;;;10.27;4.80;;;;;;;;;;5080081;28;20420;-71
2023/12/27 01:37:44;;;;;;;9.52;5.25;;;;;;;;;;5081025;28;20428;-70
2023/12/27 01:40:11;;;;;;;7.75;5.20;;;;;;;;;;5076020;28;20398;-70
2023/12/27 01:42:39;;;;;;;12.00;5.32;;;;;;;;;;5072732;28;20925;-71
2023/12/27 01:45:06;;;;;;;10.80;5.13;;;;;;;;;;5082641;28;20421;-71
2023/12/27 01:47:34;;;;;;;11.77;4.63;;;;;;;;;;5073805;28;20521;-71
2023/12/27 01:50:02;;;;;;;9.88;5.07;;;;;;;;;;5083601;28;20410;-71
2023/12/27 01:52:29;;;;;;;8.57;4.50;;;;;;;;;;5084271;28;20433;-71
2023/12/27 01:54:57;;;;;;;8.98;4.45;;;;;;;;;;5081866;28;20426;-70
2023/12/27 01:57:24;;;;;;;9.07;4.40;;;;;;;;;;5077757;28;20412;-71
2023/12/27 01:59:51;;;;;;;10.15;4.70;;;;;;;;;;5079780;28;20414;-71
2023/12/27 02:02:18;;;;;;;8.00;4.40;;;;;;;;;;5083263;28;20440;-71
2023/12/27 02:04:46;;;;;;;9.70;4.20;;;;;;;;;;5081835;28;20445;-71
2023/12/27 02:07:13;;;;;;;11.20;5.00;;;;;;;;;;5081153;28;20516;-71
2023/12/27 02:09:40;;;;;;;9.20;4.70;;;;;;;;;;5083687;28;20507;-70
2023/12/27 02:12:09;;;;;;;9.80;4.10;;;;;;;;;;5078464;28;20701;-71
2023/12/27 02:14:37;;;;;;;10.77;4.55;;;;;;;;;;5075822;28;20495;-71
2023/12/27 02:17:04;;;;;;;9.70;4.40;;;;;;;;;;5083537;28;20544;-71
2023/12/27 02:19:31;;;;;;;8.35;4.47;;;;;;;;;;5083387;28;20426;-72
2023/12/27 02:22:00;;;;;;;10.05;4.30;;;;;;;;;;5077248;28;20434;-71
2023/12/27 02:24:33;;;;;;;10.65;4.75;;;;;;;;;;5079907;28;20749;-71
2023/12/27 02:27:00;;;;;;;8.70;4.50;;;;;;;;;;5075177;28;20885;-71
2023/12/27 02:29:27;;;;;;;8.25;4.47;;;;;;;;;;5080182;28;20845;-71
2023/12/27 02:31:54;;;;;;;8.27;5.07;;;;;;;;;;5074134;28;20456;-71
2023/12/27 02:34:21;;;;;;;8.55;4.20;;;;;;;;;;5081556;28;20454;-70
2023/12/27 02:36:48;;;;;;;8.70;4.00;;;;;;;;;;5080410;28;20440;-71
2023/12/27 02:39:15;;;;;;;11.10;4.70;;;;;;;;;;5080371;28;20438;-71
2023/12/27 02:41:44;;;;;;;8.68;4.03;;;;;;;;;;5083040;28;20444;-70
2023/12/27 02:44:11;;;;;;;7.35;3.70;;;;;;;;;;5071933;28;20439;-71
2023/12/27 02:46:38;;;;;;;10.77;4.20;;;;;;;;;;5079502;28;20418;-71
2023/12/27 02:49:05;;;;;;;8.10;3.90;;;;;;;;;;5079903;28;20445;-70
2023/12/27 02:51:32;;;;;;;9.33;3.83;;;;;;;;;;5083434;28;20496;-71
2023/12/27 02:53:59;;;;;;;7.85;3.60;;;;;;;;;;5081110;28;20406;-71
2023/12/27 02:56:26;;;;;;;6.55;3.88;;;;;;;;;;5077913;28;20406;-71
2023/12/27 02:58:54;;;;;;;7.13;3.58;;;;;;;;;;5079425;28;20419;-71
2023/12/27 03:01:21;;;;;;;8.80;4.13;;;;;;;;;;5084513;28;20509;-71
2023/12/27 03:03:48;;;;;;;7.63;3.83;;;;;;;;;;5077157;28;20447;-71
2023/12/27 03:06:16;;;;;;;6.47;3.28;;;;;;;;;;5082471;28;20417;-71
2023/12/27 03:08:43;;;;;;;8.25;3.72;;;;;;;;;;5075518;28;20408;-71
2023/12/27 03:11:10;;;;;;;8.50;3.90;;;;;;;;;;5075931;28;20443;-71
2023/12/27 03:13:37;;;;;;;9.45;4.00;;;;;;;;;;5081673;28;20785;-71
2023/12/27 03:16:09;;;;;;;7.80;3.53;;;;;;;;;;5079163;28;20429;-71
2023/12/27 03:18:36;;;;;;;7.57;3.60;;;;;;;;;;5075497;28;20436;-71
2023/12/27 03:21:03;;;;;;;7.88;3.60;;;;;;;;;;5082418;28;20410;-71
2023/12/27 03:23:30;;;;;;;9.38;3.53;;;;;;;;;;5078187;28;20438;-71
2023/12/27 03:25:57;;;;;;;8.45;3.63;;;;;;;;;;5082155;28;20420;-72
2023/12/27 03:28:24;;;;;;;7.53;3.90;;;;;;;;;;5075498;28;20403;-70
2023/12/27 03:30:51;;;;;;;9.07;3.90;;;;;;;;;;5074741;28;20445;-71
2023/12/27 03:33:20;;;;;;;9.88;4.13;;;;;;;;;;5073983;28;20499;-71
2023/12/27 03:35:48;;;;;;;10.02;3.60;;;;;;;;;;5080590;28;20957;-71
2023/12/27 03:38:15;;;;;;;7.45;3.50;;;;;;;;;;5076566;28;20822;-71
2023/12/27 03:40:42;;;;;;;7.88;3.70;;;;;;;;;;5093329;28;20840;-71
2023/12/27 03:43:09;;;;;;;9.65;3.80;;;;;;;;;;5090230;28;20439;-71
2023/12/27 03:45:36;;;;;;;10.05;4.10;;;;;;;;;;5086026;28;20436;-71
2023/12/27 03:48:03;;;;;;;10.80;4.70;;;;;;;;;;5081904;28;20407;-71
2023/12/27 03:50:32;;;;;;;8.10;3.72;;;;;;;;;;5086730;28;20426;-71
2023/12/27 03:52:59;;;;;;;10.07;4.50;;;;;;;;;;5081462;28;20418;-71
2023/12/27 03:55:26;;;;;;;6.38;3.33;;;;;;;;;;5087566;28;20447;-71
2023/12/27 03:57:54;;;;;;;9.15;3.60;;;;;;;;;;5085711;28;20896;-71
2023/12/27 04:00:21;;;;;;;9.63;3.72;;;;;;;;;;5081844;28;20915;-71
2023/12/27 04:02:48;;;;;;;7.90;4.30;;;;;;;;;;5086334;28;20405;-71
2023/12/27 04:05:15;;;;;;;7.60;3.60;;;;;;;;;;5080205;28;20726;-71
2023/12/27 04:07:44;;;;;;;7.10;3.87;;;;;;;;;;5080955;28;20760;-71
2023/12/27 04:10:11;;;;;;;9.65;4.10;;;;;;;;;;5085289;28;20436;-70
2023/12/27 04:12:38;;;;;;;9.70;3.67;;;;;;;;;;5082710;28;20729;-71
2023/12/27 04:15:07;;;;;;;9.20;3.80;;;;;;;;;;5077469;28;20524;-71
2023/12/27 04:17:34;;;;;;;8.55;3.38;;;;;;;;;;5084994;28;21055;-71
2023/12/27 04:20:01;;;;;;;7.20;3.70;;;;;;;;;;5084903;28;20500;-71
2023/12/27 04:22:28;;;;;;;8.80;3.17;;;;;;;;;;5082208;28;20406;-70
2023/12/27 04:24:56;;;;;;;6.75;3.30;;;;;;;;;;5083666;28;20423;-71
2023/12/27 04:27:23;;;;;;;8.07;3.90;;;;;;;;;;5079056;28;20410;-71
2023/12/27 04:29:50;;;;;;;6.38;3.10;;;;;;;;;;5079962;28;20460;-71
2023/12/27 04:32:17;;;;;;;9.83;3.10;;;;;;;;;;5077572;28;20417;-71
2023/12/27 04:34:45;;;;;;;9.43;3.10;;;;;;;;;;5084517;28;20540;-70
2023/12/27 04:37:12;;;;;;;8.60;3.25;;;;;;;;;;5084023;28;20525;-71
2023/12/27 04:39:39;;;;;;;8.23;3.28;;;;;;;;;;5075226;28;20406;-71
2023/12/27 04:42:08;;;;;;;7.35;2.88;;;;;;;;;;5084895;28;20422;-71
2023/12/27 04:44:35;;;;;;;8.50;3.20;;;;;;;;;;5078266;28;20456;-69
2023/12/27 04:47:02;;;;;;;8.57;3.50;;;;;;;;;;5081251;28;20422;-70
2023/12/27 04:49:29;;;;;;;7.20;2.88;;;;;;;;;;5081449;28;20899;-70
2023/12/27 04:51:56;;;;;;;7.20;3.10;;;;;;;;;;5079249;28;20944;-69
2023/12/27 04:54:23;;;;;;;7.70;3.20;;;;;;;;;;5075595;28;20455;-69
2023/12/27 04:56:54;;;;;;;7.85;3.13;;;;;;;;;;5077735;28;20440;-68
2023/12/27 04:59:23;;;;;;;6.30;3.00;;;;;;;;;;5081843;28;20437;-70
2023/12/27 05:01:50;;;;;;;9.02;3.30;;;;;;;;;;5083855;28;20456;-69
2023/12/27 05:04:17;;;;;;;8.57;3.17;;;;;;;;;;5080552;28;20912;-69
2023/12/27 05:06:44;;;;;;;5.90;3.28;;;;;;;;;;5081062;28;20422;-69
2023/12/27 05:09:12;;;;;;;8.15;3.13;;;;;;;;;;5083860;28;20524;-69
2023/12/27 05:11:39;;;;;;;5.75;2.80;;;;;;;;;;5074264;28;20433;-69
2023/12/27 05:14:06;;;;;;;6.28;3.17;;;;;;;;;;5078222;28;20496;-70
2023/12/27 05:16:35;;;;;;;9.27;3.60;;;;;;;;;;5078364;28;20471;-69
2023/12/27 05:19:03;;;;;;;9.67;3.47;;;;;;;;;;5074762;28;20646;-69
2023/12/27 05:21:30;;;;;;;6.07;3.60;;;;;;;;;;5080723;28;20441;-70
2023/12/27 05:23:57;;;;;;;7.85;3.20;;;;;;;;;;5081915;28;20429;-69
2023/12/27 05:26:25;;;;;;;6.68;3.28;;;;;;;;;;5075819;28;20521;-69
2023/12/27 05:28:52;;;;;;;8.32;3.70;;;;;;;;;;5080370;28;20429;-70
2023/12/27 05:31:19;;;;;;;8.33;3.60;;;;;;;;;;5073857;28;20494;-69
2023/12/27 05:33:47;;;;;;;7.85;4.00;;;;;;;;;;5074772;28;20408;-69
2023/12/27 05:36:13;;;;;;;6.70;3.63;;;;;;;;;;5075142;28;20437;-69
2023/12/27 05:38:40;;;;;;;6.07;3.33;;;;;;;;;;5078094;28;20851;-67
2023/12/27 05:41:08;;;;;;;6.93;4.40;;;;;;;;;;5077212;28;20870;-69
2023/12/27 05:43:35;;;;;;;6.00;3.45;;;;;;;;;;5083956;28;20479;-68
2023/12/27 05:46:02;;;;;;;5.40;3.17;;;;;;;;;;5080601;28;20499;-68
2023/12/27 05:48:29;;;;;;;7.40;3.90;;;;;;;;;;5082281;28;20413;-69
2023/12/27 05:50:57;;;;;;;7.20;3.80;;;;;;;;;;5080319;28;20557;-68
2023/12/27 05:53:24;;;;;;;7.95;3.40;;;;;;;;;;5082489;28;20425;-69
2023/12/27 05:55:51;;;;;;;12.68;4.30;;;;;;;;;;5075840;28;20415;-68
2023/12/27 05:58:18;;;;;;;7.72;4.00;;;;;;;;;;5080258;28;20417;-68
2023/12/27 06:00:45;;;;;;;7.72;4.28;;;;;;;;;;5076012;28;20445;-67
2023/12/27 06:03:12;;;;;;;7.32;3.90;;;;;;;;;;5080544;28;20436;-69
2023/12/27 06:05:40;;;;;;;7.57;4.28;;;;;;;;;;5077677;28;20410;-68
2023/12/27 06:08:09;;;;;;;7.53;4.40;;;;;;;;;;5082932;28;20417;-69
2023/12/27 06:10:37;;;;;;;7.50;4.35;;;;;;;;;;5072313;28;20419;-66
2023/12/27 06:13:04;;;;;;;5.93;4.15;;;;;;;;;;5081028;28;20812;-69
2023/12/27 06:15:31;;;;;;;6.95;5.10;;;;;;;;;;5076997;28;20417;-68
2023/12/27 06:17:58;;;;;;;7.05;4.80;;;;;;;;;;5081671;28;20499;-68
2023/12/27 06:20:26;;;;;;;7.45;4.85;;;;;;;;;;5084132;28;20416;-69
2023/12/27 06:22:53;;;;;;;9.88;5.30;;;;;;;;;;5076420;28;20473;-69
2023/12/27 06:25:21;;;;;;;6.85;5.05;;;;;;;;;;5082948;28;20533;-68
2023/12/27 06:27:48;;;;;;;9.57;5.10;;;;;;;;;;5079623;28;20421;-68
2023/12/27 06:30:15;;;;;;;6.75;4.90;;;;;;;;;;5080812;28;20421;-69
2023/12/27 06:32:42;;;;;;;8.83;5.00;;;;;;;;;;5079620;28;20416;-69
2023/12/27 06:35:10;;;;;;;8.75;4.80;;;;;;;;;;5080363;28;20533;-68
2023/12/27 06:37:37;;;;;;;8.93;5.10;;;;;;;;;;5081829;28;20445;-69
2023/12/27 06:40:04;;;;;;;8.45;4.90;;;;;;;;;;5080805;28;20433;-69
2023/12/27 06:42:32;;;;;;;8.75;5.20;;;;;;;;;;5076128;28;20417;-69
2023/12/27 06:44:59;;;;;;;9.10;4.90;;;;;;;;;;5079678;28;20433;-69
2023/12/27 06:47:26;;;;;;;9.98;5.20;;;;;;;;;;5077781;28;20430;-68
2023/12/27 06:49:53;;;;;;;7.85;5.30;;;;;;;;;;5081934;28;20411;-69
2023/12/27 06:52:21;;;;;;;9.20;4.80;;;;;;;;;;5080685;28;20460;-68
2023/12/27 06:54:48;;;;;;;6.82;4.40;;;;;;;;;;5076052;28;20411;-69
2023/12/27 06:57:15;;;;;;;8.27;4.72;;;;;;;;;;5082669;28;20791;-69
2023/12/27 06:59:43;;;;;;;9.07;5.03;;;;;;;;;;5082535;28;20888;-70
2023/12/27 07:02:10;;;;;;;6.95;4.55;;;;;;;;;;5074523;28;20899;-68
2023/12/27 07:04:37;;;;;;;7.75;4.80;;;;;;;;;;5082237;28;20422;-69
2023/12/27 07:07:05;;;;;;;10.35;5.00;;;;;;;;;;5079856;28;20534;-69
2023/12/27 07:09:32;;;;;;;8.35;4.60;;;;;;;;;;5077894;28;20744;-72
2023/12/27 07:11:59;;;;;;;8.35;4.90;;;;;;;;;;5078956;28;20786;-69
2023/12/27 07:14:26;;;;;;;8.93;4.82;;;;;;;;;;5071016;28;21311;-63
2023/12/27 07:16:54;;;;;;;6.80;4.30;;;;;;;;;;5075007;28;20419;-63
2023/12/27 07:19:21;;;;;;;7.20;4.63;;;;;;;;;;5073916;28;20413;-63
2023/12/27 07:21:49;;;;;;;7.40;4.60;;;;;;;;;;5076461;28;20427;-68
2023/12/27 07:24:16;;;;;;;8.35;4.70;;;;;;;;;;5078986;28;20913;-66
2023/12/27 07:26:43;;;;;;;7.90;4.82;;;;;;;;;;5080495;28;20868;-68
2023/12/27 07:29:10;;;;;;;7.18;4.00;;;;;;;;;;5079857;28;20429;-69
2023/12/27 07:31:38;;;;;;;7.95;4.40;;;;;;;;;;5082162;28;20590;-69
2023/12/27 07:34:06;;;;;;;5.68;4.20;;;;;;;;;;5078269;28;20557;-69
2023/12/27 07:36:33;;;;;;;7.47;4.20;;;;;;;;;;5081701;28;20519;-69
2023/12/27 07:39:00;;;;;;;6.90;4.00;;;;;;;;;;5076669;28;20815;-69
2023/12/27 07:41:27;;;;;;;7.03;4.20;;;;;;;;;;5072761;28;20872;-69
2023/12/27 07:43:54;;;;;;;7.15;3.50;;;;;;;;;;5081427;28;20561;-68
2023/12/27 07:46:21;;;;;;;6.97;3.90;;;;;;;;;;5084398;28;20941;-66
2023/12/27 07:48:49;;;;;;;9.60;3.38;;;;;;;;;;5090376;28;20420;-68
2023/12/27 07:51:18;;;;;;;10.05;3.60;;;;;;;;;;5084939;28;20502;-68
2023/12/27 07:53:45;;;;;;;6.72;3.63;;;;;;;;;;5083359;28;20413;-69
2023/12/27 07:56:12;;;;;;;6.25;3.25;;;;;;;;;;5074718;28;20882;-69
2023/12/27 07:58:39;;;;;;;5.68;3.40;;;;;;;;;;5074366;28;20865;-69
2023/12/27 08:01:06;;;;;;;4.70;3.38;;;;;;;;;;5081873;28;20750;-69
2023/12/27 08:03:33;;;;;;;5.35;3.40;;;;;;;;;;5076250;28;20512;-67
2023/12/27 08:06:00;;;;;;;4.68;2.88;;;;;;;;;;5078374;28;20769;-69
2023/12/27 08:08:30;;;;;;;7.18;2.83;;;;;;;;;;5075141;28;20925;-68
2023/12/27 08:10:57;;;;;;;6.57;3.05;;;;;;;;;;5078119;28;20865;-69
2023/12/27 08:13:24;;;;;;;5.80;3.10;;;;;;;;;;5069787;28;20412;-68
2023/12/27 08:15:51;;;;;;;5.78;3.35;;;;;;;;;;5071243;28;20748;-69
2023/12/27 08:18:18;;;;;;;5.68;3.00;;;;;;;;;;5075719;28;20464;-68
2023/12/27 08:20:45;;;;;;;3.67;2.80;;;;;;;;;;5074834;28;20429;-68
2023/12/27 08:23:13;;;;;;;5.25;3.22;;;;;;;;;;5067849;28;20720;-69
2023/12/27 08:25:41;;;;;;;3.90;2.63;;;;;;;;;;5060954;28;20426;-68
2023/12/27 08:28:09;;;;;;;7.95;3.10;;;;;;;;;;5081684;28;20422;-68
2023/12/27 08:30:36;;;;;;;5.50;2.90;;;;;;;;;;5085556;28;20483;-68
2023/12/27 08:33:06;;;;;;;5.20;3.13;;;;;;;;;;5084975;28;20414;-68
2023/12/27 08:35:33;;;;;;;5.30;3.00;;;;;;;;;;5084057;28;20812;-69
2023/12/27 08:38:00;;;;;;;4.80;3.08;;;;;;;;;;5075962;28;21022;-68
2023/12/27 08:40:27;;;;;;;4.28;2.72;;;;;;;;;;5078920;28;20446;-69
2023/12/27 08:42:57;;;;;;;7.10;3.40;;;;;;;;;;5081167;28;20432;-69
2023/12/27 08:45:25;;;;;;;4.78;3.25;;;;;;;;;;5082911;28;20434;-69
2023/12/27 08:47:52;;;;;;;5.77;3.30;;;;;;;;;;5080361;28;20720;-69
2023/12/27 08:50:19;;;;;;;5.90;2.92;;;;;;;;;;5079445;28;20516;-69
2023/12/27 08:52:46;;;;;;;6.30;3.67;;;;;;;;;;5072069;28;20480;-69
2023/12/27 08:55:14;;;;;;;5.88;3.20;;;;;;;;;;5076241;28;20502;-69
2023/12/27 08:57:41;;;;;;;7.00;3.20;;;;;;;;;;5078693;28;20418;-69
2023/12/27 09:00:11;;;;;;;4.78;3.30;;;;;;;;;;5076841;28;20687;-69
2023/12/27 09:02:38;;;;;;;4.43;3.30;;;;;;;;;;5077096;28;20761;-69
2023/12/27 09:05:05;;;;;;;4.90;3.60;;;;;;;;;;5078644;28;20509;-68
2023/12/27 09:07:32;;;;;;;4.93;3.42;;;;;;;;;;5063497;28;20427;-68
2023/12/27 09:10:00;;;;;;;5.20;3.20;;;;;;;;;;5082915;28;20499;-68
2023/12/27 09:12:27;;;;;;;3.72;3.33;;;;;;;;;;5069150;28;20523;-68
2023/12/27 09:14:54;;;;;;;4.40;3.13;;;;;;;;;;5075263;28;20756;-68
2023/12/27 09:17:22;;;;;;;5.00;3.20;;;;;;;;;;5081855;28;20413;-69
2023/12/27 09:19:49;;;;;;;5.05;3.45;;;;;;;;;;5080633;28;20781;-69
2023/12/27 09:22:16;;;;;;;3.80;3.00;;;;;;;;;;5074477;28;20430;-69
2023/12/27 09:24:43;;;;;;;4.72;3.40;;;;;;;;;;5075963;28;20846;-68
2023/12/27 09:27:12;;;;;;;4.80;3.30;;;;;;;;;;5075480;28;20912;-68
2023/12/27 09:29:39;;;;;;;3.90;3.00;;;;;;;;;;5079450;28;20822;-68
2023/12/27 09:32:07;;;;;;;4.60;3.13;;;;;;;;;;5071161;28;20932;-67
2023/12/27 09:34:35;;;;;;;4.40;3.40;;;;;;;;;;5067152;28;20500;-68
2023/12/27 09:37:03;;;;;;;5.50;2.90;;;;;;;;;;5071043;28;20454;-68
2023/12/27 09:39:30;;;;;;;4.00;3.20;;;;;;;;;;5073927;28;20430;-69
2023/12/27 09:41:57;;;;;;;3.60;2.92;;;;;;;;;;5079818;28;20437;-68
2023/12/27 09:44:25;;;;;;;4.30;3.00;;;;;;;;;;5083138;28;20520;-68
2023/12/27 09:46:52;;;;;;;3.33;2.97;;;;;;;;;;5083140;28;20413;-68
2023/12/27 09:49:21;;;;;;;4.53;3.03;;;;;;;;;;5075986;28;20441;-68
2023/12/27 09:51:49;;;;;;;4.50;2.75;;;;;;;;;;5078120;28;20448;-68
2023/12/27 09:54:17;;;;;;;4.83;2.60;;;;;;;;;;5082650;28;20991;-68
2023/12/27 09:56:45;;;;;;;3.40;2.40;;;;;;;;;;5077473;28;20496;-67
2023/12/27 09:59:14;;;;;;;2.95;2.30;;;;;;;;;;5080607;28;20416;-68
2023/12/27 10:01:43;;;;;;;3.00;2.53;;;;;;;;;;5082788;28;20426;-68
2023/12/27 10:04:13;;;;;;;2.78;2.20;;;;;;;;;;5075882;28;20424;-68
2023/12/27 10:06:43;;;;;;;3.58;2.15;;;;;;;;;;5073674;28;20434;-69
2023/12/27 10:09:11;;;;;;;2.85;2.50;;;;;;;;;;5078567;28;20829;-68
2023/12/27 10:11:39;;;;;;;3.38;2.40;;;;;;;;;;5078180;28;20453;-68
2023/12/27 10:14:08;;;;;;;4.10;2.13;;;;;;;;;;5077006;28;20418;-68
2023/12/27 10:16:35;;;;;;;2.38;2.15;;;;;;;;;;5080520;28;20406;-68
2023/12/27 10:19:04;;;;;;;3.20;2.28;;;;;;;;;;5077008;28;20517;-68
2023/12/27 10:21:40;;;;;;;2.80;2.10;;;;;;;;;;5077884;28;20757;-69
2023/12/27 10:24:07;;;;;;;2.80;2.33;;;;;;;;;;5080553;28;20435;-67
2023/12/27 10:26:37;;;;;;;3.22;2.38;;;;;;;;;;5079195;28;20783;-69
2023/12/27 10:29:04;;;;;;;2.97;2.40;;;;;;;;;;5079691;28;20417;-68
2023/12/27 10:31:31;;;;;;;3.30;2.30;;;;;;;;;;5080336;28;20446;-68
2023/12/27 10:34:02;;;;;;;3.60;2.40;;;;;;;;;;5076599;28;20429;-69
2023/12/27 10:36:30;;;;;;;2.13;1.90;;;;;;;;;;5074479;28;20886;-69
2023/12/27 10:39:01;;;;;;;2.90;1.95;;;;;;;;;;5081162;28;20409;-69
2023/12/27 10:41:29;;;;;;;2.75;2.33;;;;;;;;;;5071481;28;20895;-67
2023/12/27 10:43:58;;;;;;;2.80;2.50;;;;;;;;;;5077355;28;20937;-69
2023/12/27 10:46:25;;;;;;;4.03;3.00;;;;;;;;;;5078483;28;20538;-68
2023/12/27 10:48:53;;;;;;;2.40;2.10;;;;;;;;;;5079903;28;21030;-68
2023/12/27 10:51:21;;;;;;;2.60;2.00;;;;;;;;;;5082162;28;21166;-68
2023/12/27 10:53:51;;;;;;;2.08;1.80;;;;;;;;;;5073433;28;20413;-68
2023/12/27 10:56:20;;;;;;;3.53;1.90;;;;;;;;;;5086789;28;20437;-68
2023/12/27 10:58:51;;;;;;;3.15;2.20;;;;;;;;;;5076508;28;20414;-70
2023/12/27 11:01:20;;;;;;;2.97;2.00;;;;;;;;;;5070384;28;20410;-68
2023/12/27 11:03:48;;;;;;;2.50;1.95;;;;;;;;;;5069691;28;20424;-69
2023/12/27 11:06:16;;;;;;;2.58;1.70;;;;;;;;;;5069783;28;20772;-68
2023/12/27 11:08:46;;;;;;;1.98;1.50;;;;;;;;;;5068941;28;20419;-68
2023/12/27 11:11:14;;;;;;;3.53;1.75;;;;;;;;;;5080866;28;20442;-74
2023/12/27 11:13:41;;;;;;;3.08;1.85;;;;;;;;;;5061883;28;20735;-69
2023/12/27 11:16:09;;;;;;;2.30;1.70;;;;;;;;;;5079043;28;20417;-68
2023/12/27 11:18:40;;;;;;;2.50;2.00;;;;;;;;;;5082472;28;20406;-69
2023/12/27 11:21:07;;;;;;;2.10;1.70;;;;;;;;;;5069890;28;20462;-68
2023/12/27 11:23:34;;;;;;;2.97;1.70;;;;;;;;;;5062903;28;20440;-69
2023/12/27 11:26:04;;;;;;;2.10;1.60;;;;;;;;;;5074350;28;20454;-69
2023/12/27 11:28:33;;;;;;;2.70;1.80;;;;;;;;;;5068184;28;20425;-69
2023/12/27 11:31:01;;;;;;;3.00;2.00;;;;;;;;;;5075358;28;21035;-69
2023/12/27 11:33:28;;;;;;;2.80;1.80;;;;;;;;;;5083163;28;20473;-69
2023/12/27 11:35:58;;;;;;;2.00;1.70;;;;;;;;;;5072084;28;20427;-69
2023/12/27 11:38:27;;;;;;;3.03;2.00;;;;;;;;;;5072616;28;20445;-69
2023/12/27 11:40:55;;;;;;;2.10;1.90;;;;;;;;;;5082572;28;20582;-68
2023/12/27 11:43:23;;;;;;;3.10;1.90;;;;;;;;;;5076096;28;20436;-68
2023/12/27 11:45:58;;;;;;;3.15;1.52;;;;;;;;;;5069361;28;20588;-70
2023/12/27 11:48:25;;;;;;;2.47;1.40;;;;;;;;;;5065322;28;20422;-68
2023/12/27 11:50:52;;;;;;;2.03;1.60;;;;;;;;;;5072058;28;20550;-68
2023/12/27 11:53:24;;;;;;;2.30;1.42;;;;;;;;;;5072002;28;20861;-67
2023/12/27 11:55:52;;;;;;;2.47;2.00;;;;;;;;;;5080053;28;20537;-67
2023/12/27 11:58:30;;;;;;;2.60;1.80;;;;;;;;;;5070474;28;20887;-68
2023/12/27 12:00:57;;;;;;;4.00;1.90;;;;;;;;;;5072109;28;20897;-68
2023/12/27 12:03:34;;;;;;;3.83;0.98;;;;;;;;;;5076953;28;20418;-68
2023/12/27 12:06:10;;;;;;;1.80;0.98;;;;;;;;;;5086412;28;20921;-68
2023/12/27 12:08:42;;;;;;;1.90;0.90;;;;;;;;;;5077181;28;20511;-68
2023/12/27 12:11:10;;;;;;;2.05;1.08;;;;;;;;;;5070966;28;20431;-66
2023/12/27 12:13:38;;;;;;;1.90;0.90;;;;;;;;;;5073777;28;20513;-67
2023/12/27 12:16:06;;;;;;;1.97;1.00;;;;;;;;;;5081985;28;20410;-67
2023/12/27 12:18:34;;;;;;;1.20;0.80;;;;;;;;;;5079925;28;20432;-68
2023/12/27 12:21:01;;;;;;;3.50;1.30;;;;;;;;;;5085380;28;20437;-68
2023/12/27 12:23:30;;;;;;;1.35;0.73;;;;;;;;;;5075943;28;20882;-68
2023/12/27 12:26:00;;;;;;;1.20;0.80;;;;;;;;;;5078023;28;20514;-69
2023/12/27 12:28:27;;;;;;;1.83;1.00;;;;;;;;;;5074408;28;20409;-69
2023/12/27 12:30:56;;;;;;;2.07;0.90;;;;;;;;;;5079332;28;20778;-69
2023/12/27 12:33:24;;;;;;;1.83;0.90;;;;;;;;;;5078043;28;20770;-69
2023/12/27 12:35:51;;;;;;;1.63;1.13;;;;;;;;;;5084778;28;20516;-69
2023/12/27 12:38:19;;;;;;;1.67;0.90;;;;;;;;;;5071988;28;20820;-69
2023/12/27 12:40:47;;;;;;;1.60;0.90;;;;;;;;;;5085354;28;20413;-68
2023/12/27 12:43:16;;;;;;;1.33;0.90;;;;;;;;;;5083107;28;20433;-69
2023/12/27 12:45:44;;;;;;;2.20;1.00;;;;;;;;;;5081596;28;20429;-68
2023/12/27 12:48:11;;;;;;;2.38;1.20;;;;;;;;;;5080023;28;20762;-69
2023/12/27 12:50:38;;;;;;;3.20;1.13;;;;;;;;;;5076914;28;20446;-68
2023/12/27 12:53:15;;;;;;;1.60;0.95;;;;;;;;;;5065722;28;20412;-71
2023/12/27 12:55:44;;;;;;;5.75;1.90;;;;;;;;;;5078863;28;21261;-66
2023/12/27 12:58:11;;;;;;;2.20;1.20;;;;;;;;;;5079758;28;20500;-65
2023/12/27 13:00:40;;;;;;;2.63;1.45;;;;;;;;;;5080541;28;20935;-72
2023/12/27 13:03:09;;;;;;;2.10;1.00;;;;;;;;;;5067067;28;20418;-71
2023/12/27 13:05:36;;;;;;;1.40;0.90;;;;;;;;;;5076497;28;20430;-71
2023/12/27 13:08:06;;;;;;;1.92;1.08;;;;;;;;;;5078517;28;20437;-68
2023/12/27 13:10:34;;;;;;;2.00;1.10;;;;;;;;;;5083820;28;20421;-68
2023/12/27 13:13:01;;;;;;;2.10;1.13;;;;;;;;;;5075798;28;20442;-68
2023/12/27 13:15:28;;;;;;;2.75;1.20;;;;;;;;;;5081606;28;20441;-67
2023/12/27 13:17:57;;;;;;;2.40;1.02;;;;;;;;;;5077782;28;20435;-68
2023/12/27 13:20:24;;;;;;;3.22;2.00;;;;;;;;;;5077535;28;20853;-65
2023/12/27 13:22:51;;;;;;;3.05;1.60;;;;;;;;;;5079956;28;20758;-67
2023/12/27 13:25:19;;;;;;;2.70;1.50;;;;;;;;;;5079492;28;20498;-68
2023/12/27 13:27:46;;;;;;;3.97;1.55;;;;;;;;;;5078896;28;20475;-68
2023/12/27 13:30:13;;;;;;;3.00;1.30;;;;;;;;;;5067510;28;20520;-67
2023/12/27 13:32:40;;;;;;;3.55;1.30;;;;;;;;;;5077690;28;20414;-65
2023/12/27 13:35:09;;;;;;;2.30;1.50;;;;;;;;;;5065794;28;20426;-66
2023/12/27 13:37:36;;;;;;;4.60;1.63;;;;;;;;;;5077079;28;20433;-66
2023/12/27 13:40:03;;;;;;;3.67;1.67;;;;;;;;;;5079961;28;20425;-66
2023/12/27 13:42:30;;;;;;;2.92;1.58;;;;;;;;;;5082469;28;20422;-65
2023/12/27 13:44:58;;;;;;;3.70;1.60;;;;;;;;;;5080695;28;20488;-66
2023/12/27 13:47:25;;;;;;;2.97;1.80;;;;;;;;;;5072118;28;20439;-66
2023/12/27 13:49:52;;;;;;;2.25;1.55;;;;;;;;;;5070514;28;20416;-66
2023/12/27 13:52:20;;;;;;;3.07;1.70;;;;;;;;;;5076779;28;20522;-65
2023/12/27 13:54:47;;;;;;;5.68;2.00;;;;;;;;;;5070093;28;20425;-66
2023/12/27 13:57:14;;;;;;;1.70;1.35;;;;;;;;;;5078616;28;20416;-65
2023/12/27 13:59:42;;;;;;;3.05;1.60;;;;;;;;;;5075101;28;20442;-65
2023/12/27 14:02:10;;;;;;;4.72;1.90;;;;;;;;;;5067036;28;20740;-66
2023/12/27 14:04:38;;;;;;;4.30;1.97;;;;;;;;;;5082229;28;20430;-66
2023/12/27 14:07:05;;;;;;;3.50;2.00;;;;;;;;;;5077601;28;20894;-66
2023/12/27 14:09:33;;;;;;;3.25;1.85;;;;;;;;;;5073431;28;20437;-66
2023/12/27 14:12:00;;;;;;;2.50;1.60;;;;;;;;;;5063988;28;20415;-63
2023/12/27 14:14:28;;;;;;;4.38;2.03;;;;;;;;;;5081559;28;20446;-66
2023/12/27 14:16:55;;;;;;;3.13;1.60;;;;;;;;;;5074062;28;20997;-65
2023/12/27 14:19:22;;;;;;;3.30;1.73;;;;;;;;;;5068264;28;20414;-65
2023/12/27 14:21:49;;;;;;;5.07;1.80;;;;;;;;;;5080508;28;20566;-65
2023/12/27 14:24:16;;;;;;;3.35;1.83;;;;;;;;;;5070576;28;20478;-65
2023/12/27 14:26:44;;;;;;;2.83;1.70;;;;;;;;;;5079768;28;20769;-65
2023/12/27 14:29:11;;;;;;;4.80;2.13;;;;;;;;;;5078241;28;20422;-63
2023/12/27 14:31:38;;;;;;;4.50;1.83;;;;;;;;;;5074787;28;20859;-65
2023/12/27 14:34:06;;;;;;;2.85;1.90;;;;;;;;;;5065958;28;20412;-65
2023/12/27 14:36:33;;;;;;;3.60;1.60;;;;;;;;;;5075906;28;20430;-66
2023/12/27 14:39:04;;;;;;;5.90;2.40;;;;;;;;;;5071265;28;20412;-65
2023/12/27 14:41:32;;;;;;;4.45;1.80;;;;;;;;;;5080668;28;20466;-66
2023/12/27 14:44:01;;;;;;;2.80;1.80;;;;;;;;;;5076408;28;21026;-66